Time;durP1;ratioP1;P1;durP2;ratioP2;P2;SDS_P1;SDS_P2;PMS_P1;PMS_P2;Temp;Humidity;BMP_temperature;BMP_pressure;BME280_temperature;BME280_humidity;BME280_pressure;Samples;Min_cycle;Max_cycle;Signal;HPM_P1;HPM_P2
2023/08/10 00:01:56;;;;;;;72.53;8.53;;;17.50;49.00;;;;;;4923003;29;20660;-81
2023/08/10 00:04:22;;;;;;;71.17;8.17;;;17.50;48.60;;;;;;4923115;29;20170;-81
2023/08/10 00:06:47;;;;;;;70.53;6.83;;;17.50;49.80;;;;;;4923452;29;20250;-81
2023/08/10 00:09:13;;;;;;;70.23;7.57;;;17.50;51.30;;;;;;4923721;29;20196;-81
2023/08/10 00:11:39;;;;;;;73.97;8.40;;;17.40;52.60;;;;;;4923667;29;20204;-81
2023/08/10 00:14:05;;;;;;;70.90;7.73;;;17.40;54.20;;;;;;4905850;29;20196;-81
2023/08/10 00:16:32;;;;;;;70.17;7.87;;;17.40;53.90;;;;;;4923386;29;20417;-82
2023/08/10 00:18:57;;;;;;;72.17;8.30;;;17.30;56.80;;;;;;4906178;29;20229;-81
2023/08/10 00:21:23;;;;;;;71.70;7.40;;;17.30;56.40;;;;;;4923075;29;20405;-81
2023/08/10 00:23:49;;;;;;;71.27;7.67;;;17.30;56.30;;;;;;4924237;29;20169;-81
2023/08/10 00:26:14;;;;;;;78.53;8.50;;;17.30;56.80;;;;;;4923929;29;20541;-81
2023/08/10 00:28:40;;;;;;;71.20;7.20;;;17.30;56.70;;;;;;4922967;29;20217;-81
2023/08/10 00:31:06;;;;;;;73.17;8.20;;;17.30;55.70;;;;;;4923463;29;20185;-81
2023/08/10 00:33:32;;;;;;;71.30;8.40;;;17.30;55.30;;;;;;4923066;29;20652;-81
2023/08/10 00:35:59;;;;;;;72.70;9.40;;;17.20;57.20;;;;;;4923137;29;20712;-81
2023/08/10 00:38:25;;;;;;;74.37;8.13;;;17.10;59.70;;;;;;4922289;29;20412;-81
2023/08/10 00:40:50;;;;;;;73.77;9.47;;;17.10;58.60;;;;;;4923064;29;20512;-81
2023/08/10 00:43:16;;;;;;;70.50;8.17;;;17.10;59.60;;;;;;4922708;29;20496;-81
2023/08/10 00:45:42;;;;;;;73.43;8.90;;;17.10;61.10;;;;;;4922332;29;20169;-81
2023/08/10 00:48:08;;;;;;;72.07;10.57;;;17.10;61.40;;;;;;4922729;29;20225;-81
2023/08/10 00:50:34;;;;;;;71.97;11.37;;;17.10;62.70;;;;;;4922156;29;20437;-81
2023/08/10 00:53:00;;;;;;;75.17;13.53;;;17.10;62.40;;;;;;4905773;29;20417;-81
2023/08/10 00:55:26;;;;;;;74.67;13.07;;;17.00;62.10;;;;;;4905580;29;20182;-81
2023/08/10 00:57:52;;;;;;;74.47;13.57;;;17.00;63.00;;;;;;4922643;29;20920;-81
2023/08/10 01:00:20;;;;;;;72.50;12.90;;;16.90;68.20;;;;;;4922028;29;20461;-80
2023/08/10 01:02:46;;;;;;;74.40;15.03;;;17.00;66.30;;;;;;4922071;29;20312;-81
2023/08/10 01:05:13;;;;;;;75.80;17.97;;;16.90;69.40;;;;;;4905268;29;20902;-82
2023/08/10 01:08:04;;;;;;;75.80;21.83;;;16.90;70.90;;;;;;4921562;29;20195;-81
2023/08/10 01:10:39;;;;;;;76.30;21.97;;;16.90;73.00;;;;;;4921847;29;20437;-81
2023/08/10 01:13:26;;;;;;;79.80;24.60;;;16.90;75.30;;;;;;4904952;29;20829;-81
2023/08/10 01:16:10;;;;;;;77.93;24.90;;;16.90;77.50;;;;;;4922198;29;20413;-81
2023/08/10 01:18:38;;;;;;;79.23;23.37;;;17.00;81.40;;;;;;4921815;29;20408;-81
2023/08/10 01:21:15;;;;;;;75.87;23.10;;;16.90;81.80;;;;;;4904818;29;20540;-81
2023/08/10 01:23:44;;;;;;;78.37;25.50;;;17.00;83.30;;;;;;4922175;29;20479;-81
2023/08/10 01:26:11;;;;;;;85.53;28.13;;;17.00;83.20;;;;;;4921556;29;20463;-81
2023/08/10 01:28:38;;;;;;;77.20;23.33;;;17.00;83.50;;;;;;4921204;29;20944;-81
2023/08/10 01:31:04;;;;;;;77.47;27.27;;;17.00;85.70;;;;;;4904176;29;20413;-81
2023/08/10 01:33:31;;;;;;;80.00;28.10;;;17.00;84.40;;;;;;4921032;29;20511;-81
2023/08/10 01:35:56;;;;;;;78.77;26.40;;;17.00;83.50;;;;;;4921409;29;20778;-81
2023/08/10 01:38:22;;;;;;;78.87;27.57;;;17.00;82.40;;;;;;4904204;29;20409;-81
2023/08/10 01:40:50;;;;;;;77.37;27.50;;;16.90;81.80;;;;;;4921460;29;20186;-81
2023/08/10 01:43:16;;;;;;;77.87;26.47;;;16.90;80.20;;;;;;4920996;29;20169;-81
2023/08/10 01:45:46;;;;;;;78.17;27.27;;;16.80;82.50;;;;;;4921249;29;20939;-81
2023/08/10 01:48:19;;;;;;;77.43;26.47;;;16.80;84.10;;;;;;4921363;29;20158;-81
2023/08/10 01:50:46;;;;;;;79.27;29.07;;;16.80;82.40;;;;;;4921262;29;20401;-81
2023/08/10 01:53:15;;;;;;;77.07;25.93;;;16.80;82.90;;;;;;4921585;29;20435;-81
2023/08/10 01:55:41;;;;;;;77.27;22.57;;;16.70;86.20;;;;;;4921026;29;20409;-81
2023/08/10 01:58:07;;;;;;;75.87;22.63;;;16.70;87.70;;;;;;4922588;29;20409;-81
2023/08/10 02:00:37;;;;;;;75.40;19.83;;;16.70;89.20;;;;;;4920628;29;20481;-81
2023/08/10 02:03:06;;;;;;;79.43;21.60;;;16.70;90.60;;;;;;4920778;29;20441;-81
2023/08/10 02:05:32;;;;;;;79.03;20.03;;;16.70;92.00;;;;;;4921708;29;20416;-81
2023/08/10 02:07:58;;;;;;;75.40;16.63;;;16.80;91.00;;;;;;4903322;29;20414;-81
2023/08/10 02:10:24;;;;;;;76.40;17.03;;;16.80;92.10;;;;;;4920576;29;20453;-81
2023/08/10 02:12:50;;;;;;;74.90;15.33;;;16.80;91.80;;;;;;4920338;29;20626;-81
2023/08/10 02:15:16;;;;;;;76.70;18.53;;;16.80;92.70;;;;;;4920609;29;20484;-81
2023/08/10 02:17:41;;;;;;;74.20;16.63;;;16.80;93.40;;;;;;4921055;29;20176;-81
2023/08/10 02:20:12;;;;;;;74.67;15.67;;;16.80;93.00;;;;;;4903734;29;20707;-81
2023/08/10 02:22:42;;;;;;;74.13;16.00;;;16.80;93.40;;;;;;4904728;29;20177;-81
2023/08/10 02:25:09;;;;;;;78.90;17.63;;;16.80;93.80;;;;;;4903623;29;20406;-81
2023/08/10 02:27:35;;;;;;;75.30;19.50;;;16.80;93.80;;;;;;4920772;29;20571;-81
2023/08/10 02:30:01;;;;;;;75.10;17.53;;;16.70;92.60;;;;;;4903553;29;20472;-81
2023/08/10 02:32:27;;;;;;;78.07;18.80;;;16.70;92.60;;;;;;4920891;29;20467;-81
2023/08/10 02:34:53;;;;;;;74.13;18.27;;;16.60;95.00;;;;;;4920672;29;20437;-81
2023/08/10 02:37:18;;;;;;;77.50;20.07;;;16.50;95.40;;;;;;4920580;29;20207;-81
2023/08/10 02:39:47;;;;;;;78.37;20.40;;;16.50;94.10;;;;;;4920224;29;20304;-81
2023/08/10 02:42:16;;;;;;;78.47;18.90;;;16.50;93.40;;;;;;4920470;29;20169;-81
2023/08/10 02:44:43;;;;;;;75.47;17.50;;;16.50;93.00;;;;;;4920269;29;20408;-81
2023/08/10 02:47:08;;;;;;;75.60;20.13;;;16.40;93.40;;;;;;4919992;29;20756;-81
2023/08/10 02:49:34;;;;;;;74.97;20.80;;;16.40;93.90;;;;;;4920332;29;20441;-81
2023/08/10 02:52:00;;;;;;;77.63;23.10;;;16.40;93.70;;;;;;4920343;29;20635;-81
2023/08/10 02:54:25;;;;;;;77.57;23.37;;;16.40;92.20;;;;;;4902979;29;20187;-81
2023/08/10 02:56:51;;;;;;;80.37;25.03;;;16.40;91.00;;;;;;4920320;29;20245;-81
2023/08/10 02:59:17;;;;;;;79.03;24.00;;;16.40;90.10;;;;;;4919868;29;20195;-81
2023/08/10 03:01:45;;;;;;;75.90;22.23;;;16.30;91.10;;;;;;4903503;29;20168;-81
2023/08/10 03:04:11;;;;;;;75.90;21.60;;;16.40;89.20;;;;;;4903284;29;20169;-81
2023/08/10 03:06:37;;;;;;;77.40;23.83;;;16.30;90.50;;;;;;4920457;29;20408;-81
2023/08/10 03:09:03;;;;;;;76.93;24.30;;;16.20;90.00;;;;;;4923889;29;20950;-81
2023/08/10 03:11:33;;;;;;;76.40;22.27;;;16.20;90.10;;;;;;4907166;29;20191;-81
2023/08/10 03:13:59;;;;;;;77.00;22.70;;;16.10;90.70;;;;;;4923956;29;20784;-81
2023/08/10 03:16:25;;;;;;;72.57;14.93;;;16.00;90.80;;;;;;4924233;29;20404;-81
2023/08/10 03:18:51;;;;;;;74.20;15.73;;;16.00;92.70;;;;;;4923627;29;20439;-81
2023/08/10 03:21:17;;;;;;;76.70;24.30;;;16.10;92.30;;;;;;4922964;29;20924;-81
2023/08/10 03:23:43;;;;;;;74.67;19.20;;;16.10;90.40;;;;;;4923252;29;20491;-81
2023/08/10 03:26:09;;;;;;;76.03;19.20;;;16.00;90.90;;;;;;4924178;29;20444;-81
2023/08/10 03:28:35;;;;;;;75.70;20.30;;;16.00;90.50;;;;;;4906942;29;20427;-81
2023/08/10 03:31:01;;;;;;;76.13;17.60;;;16.00;89.30;;;;;;4923593;29;20416;-81
2023/08/10 03:33:26;;;;;;;76.03;20.13;;;16.00;88.10;;;;;;4906395;29;20618;-81
2023/08/10 03:35:52;;;;;;;78.10;22.43;;;16.00;88.10;;;;;;4923638;29;20524;-81
2023/08/10 03:38:18;;;;;;;76.17;21.23;;;16.00;87.50;;;;;;4906503;29;20216;-81
2023/08/10 03:40:43;;;;;;;74.67;20.03;;;16.00;85.50;;;;;;4923117;29;20203;-81
2023/08/10 03:43:09;;;;;;;76.07;22.10;;;15.90;85.10;;;;;;4906112;29;20172;-81
2023/08/10 03:45:35;;;;;;;75.07;15.87;;;15.90;86.40;;;;;;4923473;29;20269;-81
2023/08/10 03:48:02;;;;;;;77.37;16.80;;;15.80;86.80;;;;;;4906181;29;20310;-81
2023/08/10 03:50:27;;;;;;;75.30;17.23;;;15.80;87.40;;;;;;4923043;29;20187;-81
2023/08/10 03:52:53;;;;;;;75.07;15.40;;;15.70;87.30;;;;;;4905639;29;20442;-81
2023/08/10 03:55:19;;;;;;;74.20;14.50;;;15.70;90.50;;;;;;4923026;29;20367;-81
2023/08/10 03:57:45;;;;;;;75.07;15.10;;;15.70;91.50;;;;;;4923255;29;20644;-81
2023/08/10 04:00:13;;;;;;;78.10;12.53;;;15.70;90.80;;;;;;4922870;29;20223;-80
2023/08/10 04:02:39;;;;;;;74.47;11.80;;;15.70;91.40;;;;;;4923097;29;20415;-81
2023/08/10 04:05:08;;;;;;;74.90;12.00;;;15.60;91.90;;;;;;4923436;29;20828;-81
2023/08/10 04:07:34;;;;;;;73.97;15.33;;;15.60;92.50;;;;;;4922558;29;20908;-81
2023/08/10 04:10:00;;;;;;;72.07;10.97;;;15.60;91.10;;;;;;4922610;29;20502;-81
2023/08/10 04:12:27;;;;;;;75.87;11.80;;;15.60;90.80;;;;;;4922746;29;20944;-81
2023/08/10 04:14:53;;;;;;;76.33;12.43;;;15.60;91.10;;;;;;4922472;29;20427;-81
2023/08/10 04:17:19;;;;;;;72.10;10.87;;;15.60;92.10;;;;;;4922527;29;20425;-81
2023/08/10 04:19:45;;;;;;;73.83;10.73;;;15.60;92.70;;;;;;4922051;29;20496;-81
2023/08/10 04:22:10;;;;;;;72.20;10.63;;;15.50;93.30;;;;;;4905321;29;20676;-81
2023/08/10 04:24:36;;;;;;;75.77;10.13;;;15.60;92.90;;;;;;4922651;29;20411;-81
2023/08/10 04:27:02;;;;;;;72.27;11.57;;;15.60;92.80;;;;;;4905435;29;20174;-81
2023/08/10 04:29:28;;;;;;;74.10;11.47;;;15.60;92.30;;;;;;4922604;29;20219;-81
2023/08/10 04:31:55;;;;;;;76.43;12.40;;;15.60;91.20;;;;;;4922703;29;20774;-81
2023/08/10 04:34:21;;;;;;;72.80;10.03;;;15.60;91.30;;;;;;4922005;29;20469;-81
2023/08/10 04:36:46;;;;;;;74.77;11.47;;;15.60;91.10;;;;;;4922086;29;20410;-81
2023/08/10 04:39:13;;;;;;;73.50;10.90;;;15.60;91.30;;;;;;4922574;29;20866;-81
2023/08/10 04:41:38;;;;;;;72.60;12.40;;;15.60;90.40;;;;;;4905692;29;20174;-81
2023/08/10 04:44:04;;;;;;;74.50;10.53;;;15.60;90.80;;;;;;4905408;29;20777;-81
2023/08/10 04:46:30;;;;;;;73.40;9.63;;;15.50;90.80;;;;;;4922732;29;20178;-81
2023/08/10 04:48:56;;;;;;;73.80;10.53;;;15.50;92.00;;;;;;4921841;29;20434;-80
2023/08/10 04:51:22;;;;;;;75.70;11.33;;;15.50;92.20;;;;;;4904826;29;20182;-81
2023/08/10 04:53:47;;;;;;;71.80;9.43;;;15.50;93.30;;;;;;4922273;29;20444;-81
2023/08/10 04:56:13;;;;;;;74.57;9.40;;;15.50;94.20;;;;;;4922709;29;20176;-81
2023/08/10 04:58:39;;;;;;;73.10;8.43;;;15.50;96.40;;;;;;4922823;29;20223;-80
2023/08/10 05:01:04;;;;;;;73.37;9.90;;;15.50;98.20;;;;;;4922157;29;20227;-81
2023/08/10 05:03:30;;;;;;;73.17;9.33;;;15.50;98.50;;;;;;4921835;29;20600;-81
2023/08/10 05:05:56;;;;;;;75.27;9.60;;;15.60;98.10;;;;;;4921605;29;20199;-81
2023/08/10 05:08:22;;;;;;;76.27;9.73;;;15.70;97.40;;;;;;4966030;23;21214;-81
2023/08/10 05:10:49;;;;;;;75.97;11.00;;;15.60;98.90;;;;;;4921501;29;20167;-81
2023/08/10 05:13:15;;;;;;;74.37;9.97;;;15.70;99.50;;;;;;4922021;29;20412;-81
2023/08/10 05:15:41;;;;;;;75.80;9.17;;;15.70;98.50;;;;;;4905368;29;20415;-81
2023/08/10 05:18:06;;;;;;;72.73;8.30;;;15.80;98.20;;;;;;4921512;29;20170;-81
2023/08/10 05:20:32;;;;;;;75.10;10.10;;;15.80;97.80;;;;;;4921281;29;20237;-81
2023/08/10 05:22:58;;;;;;;72.33;7.57;;;15.80;99.10;;;;;;4921719;29;20625;-81
2023/08/10 05:25:24;;;;;;;75.30;8.57;;;15.90;97.80;;;;;;4921446;29;20240;-81
2023/08/10 05:27:49;;;;;;;73.67;8.70;;;16.00;96.30;;;;;;4921098;29;20165;-81
2023/08/10 05:30:16;;;;;;;77.80;8.37;;;16.00;97.70;;;;;;4920934;29;20196;-81
2023/08/10 05:32:44;;;;;;;73.37;8.57;;;16.10;97.00;;;;;;4921226;29;20172;-81
2023/08/10 05:35:11;;;;;;;75.03;9.87;;;16.10;97.30;;;;;;4921304;29;20461;-81
2023/08/10 05:37:38;;;;;;;79.77;9.30;;;16.20;98.30;;;;;;4904499;29;20948;-81
2023/08/10 05:40:09;;;;;;;73.97;8.20;;;16.20;97.90;;;;;;4921283;29;20452;-81
2023/08/10 05:42:38;;;;;;;77.00;8.80;;;16.20;98.80;;;;;;4904365;29;20412;-81
2023/08/10 05:45:06;;;;;;;71.90;8.03;;;16.30;99.60;;;;;;4904567;29;20423;-81
2023/08/10 05:47:33;;;;;;;71.77;8.97;;;16.30;99.10;;;;;;4904233;29;20941;-81
2023/08/10 05:49:59;;;;;;;74.97;9.03;;;16.40;99.60;;;;;;4921197;29;20427;-81
2023/08/10 05:52:24;;;;;;;72.73;8.03;;;16.40;99.90;;;;;;4921101;29;20524;-81
2023/08/10 05:54:50;;;;;;;73.80;7.93;;;16.40;99.80;;;;;;4905227;29;20258;-81
2023/08/10 05:57:16;;;;;;;75.30;8.30;;;16.40;98.90;;;;;;4904209;29;20649;-81
2023/08/10 05:59:41;;;;;;;75.83;12.87;;;16.60;94.60;;;;;;4920814;29;20196;-81
2023/08/10 06:02:07;;;;;;;74.63;9.40;;;16.60;90.80;;;;;;4920698;29;20165;-81
2023/08/10 06:04:34;;;;;;;83.83;10.03;;;16.50;91.70;;;;;;4920908;29;20167;-81
2023/08/10 06:06:59;;;;;;;80.73;11.20;;;16.50;94.70;;;;;;4920866;29;20216;-81
2023/08/10 06:09:26;;;;;;;77.20;9.23;;;16.50;96.00;;;;;;4919822;29;20473;-81
2023/08/10 06:11:51;;;;;;;73.30;13.03;;;16.50;95.00;;;;;;4902961;29;20420;-81
2023/08/10 06:14:17;;;;;;;75.37;15.83;;;16.60;90.60;;;;;;4903419;29;21001;-80
2023/08/10 06:16:43;;;;;;;77.33;13.83;;;16.50;90.00;;;;;;4903528;29;20527;-81
2023/08/10 06:19:09;;;;;;;75.40;17.20;;;16.60;86.60;;;;;;4920972;29;20485;-81
2023/08/10 06:21:35;;;;;;;78.93;22.80;;;16.50;83.30;;;;;;4920806;29;20912;-81
2023/08/10 06:24:01;;;;;;;80.70;26.50;;;16.60;81.10;;;;;;4920634;29;20238;-81
2023/08/10 06:26:26;;;;;;;82.07;27.27;;;16.50;78.10;;;;;;4920882;29;20169;-81
2023/08/10 06:28:52;;;;;;;79.33;24.70;;;16.50;79.40;;;;;;4920516;29;20185;-83
2023/08/10 06:31:18;;;;;;;79.90;26.00;;;16.50;78.30;;;;;;4921990;29;20247;-81
2023/08/10 06:33:44;;;;;;;79.73;29.67;;;16.40;81.00;;;;;;4923801;29;20207;-81
2023/08/10 06:36:11;;;;;;;84.93;27.13;;;16.40;79.40;;;;;;4903861;29;20420;-82
2023/08/10 06:38:37;;;;;;;78.97;30.53;;;16.40;74.90;;;;;;4922177;29;20233;-82
2023/08/10 06:41:03;;;;;;;79.97;26.60;;;16.30;78.10;;;;;;4921532;29;20985;-82
2023/08/10 06:43:29;;;;;;;82.07;28.87;;;16.30;74.00;;;;;;4903333;29;20538;-82
2023/08/10 06:45:55;;;;;;;78.70;22.20;;;16.40;76.90;;;;;;4902945;29;20173;-81
2023/08/10 06:48:21;;;;;;;80.20;27.37;;;16.40;79.30;;;;;;4920663;29;20398;-82
2023/08/10 06:50:46;;;;;;;79.40;25.17;;;16.40;80.10;;;;;;4920529;29;20419;-82
2023/08/10 06:53:12;;;;;;;78.70;23.37;;;16.40;77.40;;;;;;4903397;29;20781;-82
2023/08/10 06:55:38;;;;;;;81.37;30.47;;;16.40;81.90;;;;;;4920515;29;20192;-82
2023/08/10 06:58:04;;;;;;;81.47;29.83;;;16.50;75.50;;;;;;4919998;29;20176;-82
2023/08/10 07:00:34;;;;;;;80.27;32.17;;;16.50;73.00;;;;;;4919968;29;20449;-81
2023/08/10 07:02:59;;;;;;;80.93;29.13;;;16.60;73.10;;;;;;4920085;29;20403;-81
2023/08/10 07:05:34;;;;;;;80.60;31.67;;;16.60;69.20;;;;;;4920104;29;20412;-81
2023/08/10 07:08:00;;;;;;;78.00;22.07;;;16.60;68.20;;;;;;4920462;29;20232;-81
2023/08/10 07:10:25;;;;;;;80.23;23.70;;;16.60;58.80;;;;;;4903347;29;20601;-81
2023/08/10 07:12:51;;;;;;;78.17;24.83;;;16.60;57.20;;;;;;4919620;29;20674;-81
2023/08/10 07:15:17;;;;;;;76.57;15.37;;;16.60;57.90;;;;;;4919857;29;20682;-81
2023/08/10 07:17:43;;;;;;;77.70;18.87;;;16.60;59.30;;;;;;4919857;29;20180;-82
2023/08/10 07:20:09;;;;;;;75.00;12.50;;;16.60;57.20;;;;;;4919831;29;20449;-82
2023/08/10 07:22:35;;;;;;;71.20;9.30;;;16.70;47.80;;;;;;4919818;29;20193;-82
2023/08/10 07:25:05;;;;;;;74.13;14.37;;;16.70;46.50;;;;;;4919893;29;20952;-81
2023/08/10 07:27:33;;;;;;;70.67;8.00;;;16.70;53.80;;;;;;4920209;29;20610;-81
2023/08/10 07:29:59;;;;;;;72.00;6.00;;;16.60;33.20;;;;;;4919649;29;20429;-81
2023/08/10 07:32:26;;;;;;;77.83;6.17;;;16.70;32.20;;;;;;4920420;29;20440;-81
2023/08/10 07:34:52;;;;;;;72.50;7.37;;;16.70;34.60;;;;;;4919967;29;20465;-81
2023/08/10 07:37:18;;;;;;;72.13;10.37;;;16.80;31.40;;;;;;4902920;29;20406;-81
2023/08/10 07:39:43;;;;;;;78.27;19.37;;;16.90;23.10;;;;;;4919266;29;20462;-81
2023/08/10 07:42:09;;;;;;;76.17;16.40;;;16.90;1.00;;;;;;4904568;29;20171;-84
2023/08/10 07:44:35;;;;;;;73.77;19.40;;;16.90;1.00;;;;;;4923622;29;20173;-84
2023/08/10 07:47:03;;;;;;;77.40;18.57;;;16.90;4.10;;;;;;4905324;29;20233;-84
2023/08/10 07:49:32;;;;;;;73.27;11.87;;;16.90;1.00;;;;;;4905791;29;20200;-84
2023/08/10 07:51:58;;;;;;;74.50;13.60;;;16.90;1.00;;;;;;4907730;29;20461;-84
2023/08/10 07:54:25;;;;;;;77.00;21.93;;;16.90;1.00;;;;;;4909142;29;20417;-84
2023/08/10 07:56:51;;;;;;;77.50;20.67;;;16.90;1.00;;;;;;4910323;29;20421;-84
2023/08/10 07:59:17;;;;;;;76.43;23.40;;;17.00;1.00;;;;;;4926961;29;20594;-84
2023/08/10 08:01:43;;;;;;;74.40;17.63;;;17.10;1.00;;;;;;4915376;29;20431;-84
2023/08/10 08:04:09;;;;;;;76.57;17.57;;;17.20;1.00;;;;;;4928818;29;20472;-84
2023/08/10 08:06:38;;;;;;;76.70;18.83;;;17.30;1.00;;;;;;4926638;29;20409;-84
2023/08/10 08:09:06;;;;;;;75.20;20.13;;;17.30;1.00;;;;;;4907747;29;20212;-84
2023/08/10 08:11:34;;;;;;;73.87;18.97;;;17.40;1.00;;;;;;4925198;29;20420;-84
2023/08/10 08:14:01;;;;;;;73.77;17.83;;;17.40;1.00;;;;;;4925476;29;20953;-84
2023/08/10 08:16:31;;;;;;;74.40;16.20;;;17.40;1.00;;;;;;4908495;29;20468;-84
2023/08/10 08:18:57;;;;;;;71.60;11.67;;;17.50;1.00;;;;;;4907984;29;20428;-84
2023/08/10 08:21:31;;;;;;;77.77;10.23;;;17.60;1.00;;;;;;4907746;29;20421;-84
2023/08/10 08:23:57;;;;;;;71.63;8.27;;;17.50;1.00;;;;;;4908773;29;20184;-84
2023/08/10 08:26:26;;;;;;;69.90;7.10;;;17.60;1.00;;;;;;4907154;29;20413;-84
2023/08/10 08:28:52;;;;;;;70.17;5.67;;;17.60;1.00;;;;;;4924004;29;20269;-83
2023/08/10 08:31:29;;;;;;;69.87;5.70;;;17.60;1.00;;;;;;4924260;29;20501;-84
2023/08/10 08:33:55;;;;;;;72.63;7.10;;;17.70;1.00;;;;;;4925771;29;20442;-84
2023/08/10 08:36:20;;;;;;;72.10;6.47;;;17.60;1.00;;;;;;4907365;29;20413;-84
2023/08/10 08:38:52;;;;;;;69.67;6.63;;;17.70;1.00;;;;;;4908493;29;20610;-84
2023/08/10 08:41:23;;;;;;;70.00;6.50;;;17.70;1.00;;;;;;4926872;29;20189;-84
2023/08/10 08:44:07;;;;;;;70.73;7.30;;;17.70;1.00;;;;;;4925665;29;20398;-84
2023/08/10 08:46:50;;;;;;;70.23;5.50;;;17.70;1.00;;;;;;4927493;29;20549;-85
2023/08/10 08:49:57;;;;;;;70.50;6.00;;;17.80;1.00;;;;;;4908937;29;20433;-84
2023/08/10 08:52:33;;;;;;;69.87;5.00;;;17.90;1.00;;;;;;4907393;29;20414;-84
2023/08/10 08:55:31;;;;;;;73.17;6.10;;;18.00;1.00;;;;;;4907375;29;20401;-84
2023/08/10 08:57:59;;;;;;;70.10;4.30;;;18.10;1.00;;;;;;4907850;29;20492;-84
2023/08/10 09:00:34;;;;;;;70.70;4.40;;;18.10;1.00;;;;;;4908349;29;20461;-84
2023/08/10 09:03:02;;;;;;;72.70;4.77;;;18.20;1.00;;;;;;4927812;29;20413;-85
2023/08/10 09:05:30;;;;;;;70.20;4.80;;;18.20;1.00;;;;;;4909179;29;20406;-85
2023/08/10 09:08:06;;;;;;;;;;;;;;;;;;;;;
2023/08/10 09:14:13;;;;;;;70.33;4.30;;;18.40;1.00;;;;;;4930062;29;20450;-84
2023/08/10 09:16:45;;;;;;;69.17;3.23;;;18.50;1.00;;;;;;4944697;29;20401;-84
2023/08/10 09:19:16;;;;;;;70.20;3.90;;;18.50;1.00;;;;;;4927723;29;20263;-84
2023/08/10 09:21:45;;;;;;;69.87;3.50;;;18.60;1.00;;;;;;4926321;29;20801;-83
2023/08/10 09:24:17;;;;;;;72.20;3.97;;;18.60;1.00;;;;;;4944534;29;20389;-84
2023/08/10 09:26:46;;;;;;;71.53;4.17;;;18.70;1.00;;;;;;4943117;29;20432;-84
2023/08/10 09:29:39;;;;;;;69.00;3.70;;;18.80;1.00;;;;;;4924988;29;20522;-84
2023/08/10 09:32:20;;;;;;;73.43;3.80;;;18.90;1.00;;;;;;4942968;29;20385;-83
2023/08/10 09:34:48;;;;;;;73.73;4.40;;;19.00;1.00;;;;;;4945927;29;20384;-84
2023/08/10 09:37:17;;;;;;;71.37;4.40;;;19.00;1.00;;;;;;4945756;29;20955;-84
2023/08/10 09:42:57;;;;;;;72.10;4.00;;;19.20;1.00;;;;;;4940038;29;20421;-85
2023/08/10 09:45:32;;;;;;;72.00;3.93;;;19.30;1.00;;;;;;4942295;29;20416;-84
2023/08/10 09:48:09;;;;;;;69.07;3.20;;;19.50;1.00;;;;;;4926288;29;20491;-84
2023/08/10 09:50:45;;;;;;;70.67;2.97;;;19.50;1.00;;;;;;4944027;29;20825;-84
2023/08/10 09:53:41;;;;;;;76.30;3.57;;;19.70;1.00;;;;;;4926800;29;20456;-85
2023/08/10 09:56:10;;;;;;;69.70;3.67;;;19.80;1.00;;;;;;4927318;29;20424;-85
2023/08/10 09:58:42;;;;;;;71.93;3.83;;;19.90;1.00;;;;;;4943846;29;20418;-85
2023/08/10 10:01:18;;;;;;;70.47;4.50;;;20.00;1.00;;;;;;4925777;29;20479;-84
2023/08/10 10:03:44;;;;;;;70.80;4.80;;;20.10;1.00;;;;;;4942725;29;20457;-85
2023/08/10 10:06:37;;;;;;;70.60;5.13;;;20.30;1.00;;;;;;4927574;29;20492;-85
2023/08/10 10:09:07;;;;;;;74.50;5.37;;;20.30;1.00;;;;;;4925825;29;20432;-84
2023/08/10 10:11:33;;;;;;;73.53;6.00;;;20.40;1.00;;;;;;4942210;29;20447;-84
2023/08/10 10:13:59;;;;;;;70.97;6.40;;;20.60;1.00;;;;;;4943091;29;20423;-84
2023/08/10 10:16:39;;;;;;;73.53;6.77;;;20.70;1.00;;;;;;4942103;29;20488;-84
2023/08/10 10:19:05;;;;;;;71.30;6.90;;;20.80;1.00;;;;;;4924982;29;20489;-84
2023/08/10 10:21:31;;;;;;;74.70;6.60;;;21.00;1.00;;;;;;4943525;29;20498;-85
2023/08/10 10:24:04;;;;;;;74.90;6.70;;;21.10;1.00;;;;;;4925414;29;20177;-84
2023/08/10 10:26:30;;;;;;;72.40;6.27;;;21.30;1.00;;;;;;4926366;29;20183;-84
2023/08/10 10:29:30;;;;;;;70.67;5.63;;;21.50;1.00;;;;;;4943258;29;20464;-85
2023/08/10 10:32:09;;;;;;;72.47;6.00;;;21.60;1.00;;;;;;4943530;29;20216;-85
2023/08/10 10:34:37;;;;;;;74.30;6.53;;;21.80;1.00;;;;;;4944328;29;20401;-85
2023/08/10 10:37:30;;;;;;;72.77;5.37;;;22.00;1.00;;;;;;4926664;29;20913;-85
2023/08/10 10:40:15;;;;;;;71.30;5.30;;;22.30;1.00;;;;;;4940915;29;20508;-85
2023/08/10 10:43:15;;;;;;;72.00;5.60;;;22.50;1.00;;;;;;4943011;29;20396;-85
2023/08/10 10:46:07;;;;;;;72.90;5.93;;;22.60;1.00;;;;;;4943043;29;20400;-86
2023/08/10 10:48:40;;;;;;;71.83;7.40;;;22.90;1.00;;;;;;4942649;29;20385;-85
2023/08/10 10:51:10;;;;;;;72.77;7.40;;;23.30;1.00;;;;;;4942128;29;20492;-85
2023/08/10 10:53:47;;;;;;;72.17;6.83;;;23.30;1.00;;;;;;4925168;29;20404;-85
2023/08/10 10:56:24;;;;;;;72.10;7.07;;;23.50;1.00;;;;;;4943328;29;20413;-85
2023/08/10 10:59:06;;;;;;;73.60;6.37;;;23.90;1.00;;;;;;4926600;29;20429;-88
2023/08/10 11:01:32;;;;;;;74.17;5.87;;;24.20;1.00;;;;;;4926149;29;20468;-85
2023/08/10 11:04:46;;;;;;;73.47;5.03;;;24.20;1.00;;;;;;4943312;29;20397;-85
2023/08/10 11:07:12;;;;;;;72.90;4.40;;;24.20;1.00;;;;;;4902653;29;20406;-85
2023/08/10 11:09:38;;;;;;;72.50;4.53;;;24.20;1.00;;;;;;5004525;23;20473;-85
2023/08/10 11:12:07;;;;;;;73.17;4.63;;;24.20;1.00;;;;;;4924609;29;20189;-84
2023/08/10 11:15:02;;;;;;;73.70;4.70;;;24.20;1.00;;;;;;4926142;29;20165;-85
2023/08/10 11:17:56;;;;;;;74.20;5.20;;;24.20;1.00;;;;;;4906699;29;20433;-85
2023/08/10 11:20:22;;;;;;;73.27;4.90;;;24.50;1.00;;;;;;4921688;29;20541;-83
2023/08/10 11:22:49;;;;;;;81.90;6.67;;;24.60;1.00;;;;;;4905340;29;20460;-83
2023/08/10 11:25:25;;;;;;;75.43;7.07;;;24.90;1.00;;;;;;4922226;29;20660;-83
2023/08/10 11:27:53;;;;;;;74.13;7.27;;;25.20;1.00;;;;;;4924696;29;20395;-83
2023/08/10 11:30:21;;;;;;;76.47;7.90;;;25.10;1.00;;;;;;4929870;29;20953;-83
2023/08/10 11:32:49;;;;;;;75.47;9.73;;;25.00;1.00;;;;;;4928036;29;20417;-83
2023/08/10 11:35:17;;;;;;;76.80;10.13;;;24.90;1.00;;;;;;4927065;29;20410;-83
2023/08/10 11:37:43;;;;;;;80.33;11.97;;;24.90;1.00;;;;;;4926002;29;20418;-83
2023/08/10 11:40:23;;;;;;;75.03;9.13;;;25.10;1.00;;;;;;4924579;29;20466;-83
2023/08/10 11:43:03;;;;;;;76.27;9.93;;;25.40;1.00;;;;;;4925860;29;20644;-83
2023/08/10 11:45:28;;;;;;;78.70;17.00;;;25.50;1.00;;;;;;4922940;29;20802;-83
2023/08/10 11:47:57;;;;;;;81.10;23.40;;;25.80;1.00;;;;;;4892232;29;20416;-82
2023/08/10 11:50:25;;;;;;;75.77;10.80;;;25.80;1.00;;;;;;4924705;29;20187;-83
2023/08/10 11:52:54;;;;;;;77.73;14.70;;;25.90;1.00;;;;;;4907442;29;20426;-83
2023/08/10 11:55:21;;;;;;;77.03;13.50;;;25.90;1.00;;;;;;4925531;29;20494;-83
2023/08/10 11:57:52;;;;;;;78.80;11.03;;;25.80;1.00;;;;;;4927121;29;20947;-83
2023/08/10 12:00:30;;;;;;;75.60;10.33;;;25.90;1.00;;;;;;4911352;29;20538;-83
2023/08/10 12:03:13;;;;;;;79.50;22.30;;;26.00;1.00;;;;;;4914036;29;20572;-84
2023/08/10 12:05:40;;;;;;;77.77;17.97;;;25.60;1.00;;;;;;4914479;29;20400;-84
2023/08/10 12:08:17;;;;;;;80.43;21.73;;;25.90;1.00;;;;;;4931868;29;20409;-84
2023/08/10 12:10:48;;;;;;;83.20;21.27;;;25.60;1.00;;;;;;4929850;29;20449;-83
2023/08/10 12:13:15;;;;;;;77.10;14.17;;;25.60;1.00;;;;;;4929112;29;20400;-83
2023/08/10 12:15:46;;;;;;;80.77;22.50;;;25.70;1.00;;;;;;4914310;29;20421;-83
2023/08/10 12:18:13;;;;;;;80.50;24.77;;;25.70;1.00;;;;;;4928750;29;20417;-83
2023/08/10 12:20:39;;;;;;;80.20;23.33;;;26.00;1.00;;;;;;5047175;23;20496;-83
2023/08/10 12:23:07;;;;;;;76.30;15.77;;;26.00;1.00;;;;;;4929540;29;20917;-84
2023/08/10 12:25:32;;;;;;;86.20;20.40;;;26.00;1.00;;;;;;4946583;29;20401;-83
2023/08/10 12:27:58;;;;;;;83.47;19.73;;;26.10;1.00;;;;;;4950626;29;20408;-84
2023/08/10 12:30:24;;;;;;;82.77;27.67;;;26.10;1.00;;;;;;4953744;29;20305;-83
2023/08/10 12:32:49;;;;;;;85.00;34.80;;;25.80;1.00;;;;;;4931951;29;20181;-83
2023/08/10 12:35:15;;;;;;;85.17;39.07;;;25.70;1.00;;;;;;4932562;29;20331;-83
2023/08/10 12:37:41;;;;;;;84.50;39.40;;;25.60;1.00;;;;;;4933620;29;20333;-84
2023/08/10 12:40:08;;;;;;;86.30;39.57;;;25.60;1.00;;;;;;4934109;29;20211;-84
2023/08/10 12:42:36;;;;;;;80.80;26.20;;;25.70;1.00;;;;;;4947851;29;20503;-84
2023/08/10 12:45:03;;;;;;;84.90;37.33;;;25.30;1.00;;;;;;4952305;29;20416;-84
2023/08/10 12:47:28;;;;;;;84.63;41.40;;;25.40;1.00;;;;;;4952807;29;20490;-84
2023/08/10 12:49:54;;;;;;;86.60;40.87;;;25.70;1.00;;;;;;4934824;29;20444;-83
2023/08/10 12:52:20;;;;;;;87.53;31.03;;;25.90;1.00;;;;;;4947351;29;20175;-83